createdAt,value
2018-04-15T00:00:43.552Z,0.00
2018-04-15T00:01:43.542Z,0.00
2018-04-15T00:02:43.520Z,0.00
2018-04-15T00:03:43.507Z,0.00
2018-04-15T00:04:43.490Z,0.00
2018-04-15T00:05:43.486Z,0.00
2018-04-15T00:06:43.461Z,0.00
2018-04-15T00:07:43.442Z,0.00
2018-04-15T00:08:43.431Z,0.00
2018-04-15T00:09:43.413Z,0.00
2018-04-15T00:10:43.398Z,0.00
2018-04-15T00:11:43.386Z,0.00
2018-04-15T00:12:43.365Z,0.00
2018-04-15T00:13:43.352Z,0.00
2018-04-15T00:14:43.345Z,0.00
2018-04-15T00:15:43.327Z,0.00
2018-04-15T00:16:43.314Z,0.00
2018-04-15T00:17:43.293Z,0.00
2018-04-15T00:18:43.270Z,0.00
2018-04-15T00:19:43.260Z,0.00
2018-04-15T00:20:43.244Z,0.00
2018-04-15T00:21:43.235Z,0.00
2018-04-15T00:22:43.208Z,0.00
2018-04-15T00:23:43.198Z,0.00
2018-04-15T00:24:43.182Z,0.00
2018-04-15T00:25:43.163Z,0.00
2018-04-15T00:26:43.152Z,0.00
2018-04-15T00:27:43.133Z,0.00
2018-04-15T00:28:43.122Z,0.00
2018-04-15T00:29:43.111Z,0.00
2018-04-15T00:30:43.085Z,0.00
2018-04-15T00:31:43.070Z,0.00
2018-04-15T00:32:43.052Z,0.00
2018-04-15T00:33:43.041Z,0.00
2018-04-15T00:34:43.023Z,0.00
2018-04-15T00:35:43.019Z,0.00
2018-04-15T00:36:42.991Z,0.00
2018-04-15T00:37:42.984Z,0.00
2018-04-15T00:38:42.964Z,0.00
2018-04-15T00:39:42.954Z,0.00
2018-04-15T00:40:42.944Z,0.00
2018-04-15T00:41:42.915Z,0.00
2018-04-15T00:42:42.906Z,0.00
2018-04-15T00:43:42.881Z,0.00
2018-04-15T00:44:42.874Z,0.00
2018-04-15T00:45:42.852Z,0.00
2018-04-15T00:46:42.846Z,0.00
2018-04-15T00:47:42.826Z,0.00
2018-04-15T00:48:42.812Z,0.00
2018-04-15T00:49:42.791Z,0.00
2018-04-15T00:50:42.775Z,0.00
2018-04-15T00:51:42.760Z,0.00
2018-04-15T00:52:42.742Z,0.00
2018-04-15T00:53:42.725Z,0.00
2018-04-15T00:54:42.711Z,0.00
2018-04-15T00:55:42.695Z,0.00
2018-04-15T00:56:42.680Z,0.00
2018-04-15T00:57:42.670Z,0.00
2018-04-15T00:58:42.646Z,0.00
2018-04-15T00:59:42.634Z,0.00
2018-04-15T01:00:42.619Z,0.00
2018-04-15T01:01:42.602Z,0.00
2018-04-15T01:02:42.595Z,0.00
2018-04-15T01:03:42.567Z,0.00
2018-04-15T01:04:42.563Z,0.00
2018-04-15T01:05:42.540Z,0.00
2018-04-15T01:06:42.521Z,0.00
2018-04-15T01:07:42.513Z,0.00
2018-04-15T01:08:42.493Z,0.00
2018-04-15T01:09:42.483Z,0.00
2018-04-15T01:10:42.459Z,0.00
2018-04-15T01:11:42.446Z,0.00
2018-04-15T01:12:42.434Z,0.00
2018-04-15T01:13:42.424Z,0.00
2018-04-15T01:14:42.399Z,0.00
2018-04-15T01:15:42.390Z,0.00
2018-04-15T01:16:42.369Z,0.00
2018-04-15T01:17:42.353Z,0.00
2018-04-15T01:18:42.343Z,0.00
2018-04-15T01:19:42.322Z,0.00
2018-04-15T01:20:42.312Z,0.00
2018-04-15T01:21:42.293Z,0.00
2018-04-15T01:22:42.283Z,0.00
2018-04-15T01:23:42.264Z,0.00
2018-04-15T01:24:42.242Z,0.00
2018-04-15T01:25:42.235Z,0.00
2018-04-15T01:26:42.211Z,0.00
2018-04-15T01:27:42.196Z,0.00
2018-04-15T01:28:42.182Z,0.00
2018-04-15T01:29:42.164Z,0.00
2018-04-15T01:30:42.151Z,0.00
2018-04-15T01:31:42.131Z,0.00
2018-04-15T01:32:42.119Z,0.00
2018-04-15T01:33:42.104Z,0.00
2018-04-15T01:34:42.094Z,0.00
2018-04-15T01:35:42.080Z,0.00
2018-04-15T01:36:42.052Z,0.00
2018-04-15T01:37:42.043Z,0.00
2018-04-15T01:38:42.026Z,0.00
2018-04-15T01:39:42.011Z,0.00
2018-04-15T01:40:41.993Z,0.00
2018-04-15T01:41:41.971Z,0.00
2018-04-15T01:42:41.964Z,0.00
2018-04-15T01:43:41.943Z,0.00
2018-04-15T01:44:41.931Z,0.00
2018-04-15T01:45:41.909Z,0.00
2018-04-15T01:46:41.898Z,0.00
2018-04-15T01:47:41.880Z,0.00
2018-04-15T01:48:41.859Z,0.00
2018-04-15T01:49:41.853Z,0.00
2018-04-15T01:50:41.827Z,0.00
2018-04-15T01:51:41.811Z,0.00
2018-04-15T01:52:41.797Z,0.00
2018-04-15T01:53:41.784Z,0.00
2018-04-15T01:54:41.766Z,0.00
2018-04-15T01:55:41.750Z,0.00
2018-04-15T01:56:41.735Z,0.00
2018-04-15T01:57:41.721Z,0.00
2018-04-15T01:58:41.701Z,0.00
2018-04-15T01:59:41.685Z,0.00
2018-04-15T02:00:41.671Z,0.00
2018-04-15T02:01:41.651Z,0.00
2018-04-15T02:02:41.679Z,0.00
2018-04-15T02:03:41.624Z,0.00
2018-04-15T02:04:41.607Z,0.00
2018-04-15T02:05:41.591Z,0.00
2018-04-15T02:06:41.571Z,0.00
2018-04-15T02:07:41.561Z,0.00
2018-04-15T02:08:41.560Z,0.00
2018-04-15T02:09:41.525Z,0.00
2018-04-15T02:10:41.570Z,0.00
2018-04-15T02:11:41.491Z,0.00
2018-04-15T02:12:41.507Z,0.00
2018-04-15T02:13:41.462Z,0.00
2018-04-15T02:14:41.453Z,0.00
2018-04-15T02:15:41.432Z,0.00
2018-04-15T02:16:41.422Z,0.00
2018-04-15T02:17:41.403Z,0.00
2018-04-15T02:18:41.490Z,0.00
2018-04-15T02:19:41.370Z,0.00
2018-04-15T02:20:41.353Z,0.00
2018-04-15T02:21:41.343Z,0.00
2018-04-15T02:22:41.388Z,0.00
2018-04-15T02:23:41.307Z,0.00
2018-04-15T02:24:41.393Z,0.00
2018-04-15T02:25:41.272Z,0.00
2018-04-15T02:26:41.267Z,0.00
2018-04-15T02:27:41.244Z,0.00
2018-04-15T02:28:41.329Z,0.00
2018-04-15T02:29:41.236Z,0.00
2018-04-15T02:30:41.215Z,0.00
2018-04-15T02:31:41.185Z,0.00
2018-04-15T02:32:41.163Z,0.00
2018-04-15T02:33:41.156Z,0.00
2018-04-15T02:34:41.148Z,0.00
2018-04-15T02:35:41.117Z,0.00
2018-04-15T02:36:41.104Z,0.00
2018-04-15T02:37:41.092Z,0.00
2018-04-15T02:38:41.083Z,0.00
2018-04-15T02:39:41.063Z,0.00
2018-04-15T02:40:41.040Z,0.00
2018-04-15T02:41:41.026Z,0.00
2018-04-15T02:42:41.007Z,0.00
2018-04-15T02:43:40.994Z,0.00
2018-04-15T02:44:40.980Z,0.00
2018-04-15T02:45:40.963Z,0.00
2018-04-15T02:46:40.943Z,0.00
2018-04-15T02:47:40.930Z,0.00
2018-04-15T02:48:40.917Z,0.00
2018-04-15T02:49:40.909Z,0.00
2018-04-15T02:50:40.882Z,0.00
2018-04-15T02:51:40.870Z,0.00
2018-04-15T02:52:40.853Z,0.00
2018-04-15T02:53:40.844Z,0.00
2018-04-15T02:54:40.823Z,0.00
2018-04-15T02:55:40.802Z,0.00
2018-04-15T02:56:40.808Z,0.00
2018-04-15T02:57:40.772Z,0.00
2018-04-15T02:58:40.763Z,0.00
2018-04-15T02:59:40.740Z,0.00
2018-04-15T03:00:40.729Z,0.00
2018-04-15T03:01:40.709Z,0.00
2018-04-15T03:02:40.696Z,0.00
2018-04-15T03:03:40.679Z,0.00
2018-04-15T03:04:40.662Z,0.00
2018-04-15T03:05:40.652Z,0.00
2018-04-15T03:06:40.633Z,0.00
2018-04-15T03:07:40.613Z,0.00
2018-04-15T03:08:40.604Z,0.00
2018-04-15T03:09:40.830Z,0.00
2018-04-15T03:10:40.571Z,0.00
2018-04-15T03:11:40.554Z,0.00
2018-04-15T03:12:40.537Z,0.00
2018-04-15T03:13:40.520Z,0.00
2018-04-15T03:14:40.504Z,0.00
2018-04-15T03:15:40.496Z,0.00
2018-04-15T03:16:40.472Z,0.00
2018-04-15T03:17:40.462Z,0.00
2018-04-15T03:18:40.445Z,0.00
2018-04-15T03:19:40.422Z,0.00
2018-04-15T03:20:40.412Z,0.00
2018-04-15T03:21:40.394Z,0.00
2018-04-15T03:22:40.378Z,0.00
2018-04-15T03:23:40.362Z,0.00
2018-04-15T03:24:40.386Z,0.00
2018-04-15T03:25:40.328Z,0.00
2018-04-15T03:26:40.313Z,0.00
2018-04-15T03:27:40.299Z,0.00
2018-04-15T03:28:40.283Z,0.00
2018-04-15T03:29:40.268Z,0.00
2018-04-15T03:30:40.256Z,0.00
2018-04-15T03:31:40.233Z,0.00
2018-04-15T03:32:40.225Z,0.00
2018-04-15T03:33:40.206Z,0.00
2018-04-15T03:34:40.185Z,0.00
2018-04-15T03:35:40.172Z,0.00
2018-04-15T03:36:40.158Z,0.00
2018-04-15T03:37:40.143Z,0.00
2018-04-15T03:38:40.122Z,0.00
2018-04-15T03:39:40.111Z,0.00
2018-04-15T03:40:40.092Z,0.00
2018-04-15T03:41:40.075Z,0.00
2018-04-15T03:42:40.062Z,0.00
2018-04-15T03:43:40.048Z,0.00
2018-04-15T03:44:40.074Z,0.00
2018-04-15T03:45:40.012Z,0.00
2018-04-15T03:46:40.003Z,0.00
2018-04-15T03:47:39.989Z,0.00
2018-04-15T03:48:39.984Z,0.00
2018-04-15T03:49:39.950Z,0.00
2018-04-15T03:50:39.931Z,0.00
2018-04-15T03:51:39.929Z,0.00
2018-04-15T03:52:39.899Z,0.00
2018-04-15T03:53:39.892Z,0.00
2018-04-15T03:54:39.868Z,0.00
2018-04-15T03:55:39.852Z,0.00
2018-04-15T03:56:39.837Z,0.00
2018-04-15T03:57:39.823Z,0.00
2018-04-15T03:58:39.804Z,0.00
2018-04-15T03:59:39.798Z,0.00
2018-04-15T04:00:39.772Z,0.00
2018-04-15T04:01:39.759Z,0.00
2018-04-15T04:02:39.742Z,0.00
2018-04-15T04:03:39.726Z,0.00
2018-04-15T04:04:39.711Z,0.00
2018-04-15T04:05:39.692Z,0.00
2018-04-15T04:06:39.688Z,0.00
2018-04-15T04:07:39.667Z,0.00
2018-04-15T04:08:39.647Z,0.00
2018-04-15T04:09:39.628Z,0.00
2018-04-15T04:10:39.611Z,0.00
2018-04-15T04:11:39.600Z,0.00
2018-04-15T04:12:39.582Z,0.00
2018-04-15T04:13:39.567Z,0.00
2018-04-15T04:14:39.552Z,0.00
2018-04-15T04:15:39.532Z,0.00
2018-04-15T04:16:39.517Z,0.00
2018-04-15T04:17:39.502Z,0.00
2018-04-15T04:18:39.491Z,0.00
2018-04-15T04:19:39.468Z,0.00
2018-04-15T04:20:39.452Z,0.00
2018-04-15T04:21:39.435Z,4.00
2018-04-15T04:22:39.422Z,4.00
2018-04-15T04:23:39.401Z,4.00
2018-04-15T04:24:39.392Z,4.00
2018-04-15T04:25:39.367Z,4.00
2018-04-15T04:26:39.353Z,0.00
2018-04-15T04:27:39.338Z,4.00
2018-04-15T04:28:39.325Z,4.00
2018-04-15T04:29:39.303Z,4.00
2018-04-15T04:30:39.288Z,8.00
2018-04-15T04:31:39.272Z,4.00
2018-04-15T04:32:39.253Z,4.00
2018-04-15T04:33:39.243Z,4.00
2018-04-15T04:34:39.223Z,8.00
2018-04-15T04:35:39.203Z,8.00
2018-04-15T04:36:39.184Z,8.00
2018-04-15T04:37:39.179Z,8.00
2018-04-15T04:38:39.161Z,8.00
2018-04-15T04:39:39.143Z,12.00
2018-04-15T04:40:39.125Z,8.00
2018-04-15T04:41:39.104Z,12.00
2018-04-15T04:42:39.094Z,12.00
2018-04-15T04:43:39.069Z,16.00
2018-04-15T04:44:39.052Z,16.00
2018-04-15T04:45:39.042Z,16.00
2018-04-15T04:46:39.024Z,16.00
2018-04-15T04:47:39.001Z,16.00
2018-04-15T04:48:38.996Z,20.00
2018-04-15T04:49:38.972Z,20.00
2018-04-15T04:50:38.953Z,24.00
2018-04-15T04:51:38.943Z,24.00
2018-04-15T04:52:38.924Z,28.00
2018-04-15T04:53:38.907Z,28.00
2018-04-15T04:54:38.887Z,28.00
2018-04-15T04:55:38.877Z,28.00
2018-04-15T04:56:38.853Z,32.00
2018-04-15T04:57:38.839Z,32.00
2018-04-15T04:58:38.833Z,36.00
2018-04-15T04:59:38.856Z,40.00
2018-04-15T05:00:38.794Z,44.00
2018-04-15T05:01:38.772Z,48.00
2018-04-15T05:02:38.765Z,48.00
2018-04-15T05:03:38.842Z,48.00
2018-04-15T05:04:38.724Z,52.00
2018-04-15T05:05:38.707Z,52.00
2018-04-15T05:06:38.693Z,56.00
2018-04-15T05:07:38.739Z,56.00
2018-04-15T05:08:38.659Z,64.00
2018-04-15T05:09:38.740Z,64.00
2018-04-15T05:10:38.623Z,68.00
2018-04-15T05:11:38.614Z,72.00
2018-04-15T05:12:38.589Z,72.00
2018-04-15T05:13:38.574Z,80.00
2018-04-15T05:14:38.559Z,80.00
2018-04-15T05:15:38.644Z,88.00
2018-04-15T05:16:38.525Z,88.00
2018-04-15T05:17:38.515Z,92.00
2018-04-15T05:18:38.494Z,92.00
2018-04-15T05:19:38.525Z,92.00
2018-04-15T05:20:38.463Z,96.00
2018-04-15T05:21:38.444Z,100.00
2018-04-15T05:22:38.431Z,100.00
2018-04-15T05:23:38.412Z,104.00
2018-04-15T05:24:38.392Z,100.00
2018-04-15T05:25:38.430Z,100.00
2018-04-15T05:26:38.352Z,108.00
2018-04-15T05:27:38.338Z,112.00
2018-04-15T05:28:38.328Z,104.00
2018-04-15T05:29:38.309Z,96.00
2018-04-15T05:30:38.288Z,88.00
2018-04-15T05:31:38.326Z,64.00
2018-04-15T05:32:38.253Z,64.00
2018-04-15T05:33:38.237Z,76.00
2018-04-15T05:34:38.236Z,72.00
2018-04-15T05:35:38.222Z,80.00
2018-04-15T05:36:38.199Z,84.00
2018-04-15T05:37:38.183Z,92.00
2018-04-15T05:38:38.155Z,84.00
2018-04-15T05:39:38.144Z,84.00
2018-04-15T05:40:38.124Z,92.00
2018-04-15T05:41:38.111Z,96.00
2018-04-15T05:42:38.088Z,116.00
2018-04-15T05:43:38.076Z,124.00
2018-04-15T05:44:38.053Z,120.00
2018-04-15T05:45:38.041Z,120.00
2018-04-15T05:46:38.024Z,116.00
2018-04-15T05:47:38.020Z,112.00
2018-04-15T05:48:37.993Z,112.00
2018-04-15T05:49:37.968Z,124.00
2018-04-15T05:50:37.953Z,132.00
2018-04-15T05:51:37.945Z,148.00
2018-04-15T05:52:37.923Z,148.00
2018-04-15T05:53:37.903Z,120.00
2018-04-15T05:54:37.902Z,112.00
2018-04-15T05:55:37.871Z,140.00
2018-04-15T05:56:37.853Z,148.00
2018-04-15T05:57:37.833Z,184.00
2018-04-15T05:58:37.824Z,204.00
2018-04-15T05:59:37.801Z,224.00
2018-04-15T06:00:37.787Z,240.00
2018-04-15T06:01:37.772Z,256.00
2018-04-15T06:02:37.753Z,264.00
2018-04-15T06:03:37.736Z,264.00
2018-04-15T06:04:37.724Z,244.00
2018-04-15T06:05:37.705Z,224.00
2018-04-15T06:06:37.692Z,204.00
2018-04-15T06:07:37.667Z,180.00
2018-04-15T06:08:37.652Z,172.00
2018-04-15T06:09:37.640Z,164.00
2018-04-15T06:10:37.623Z,152.00
2018-04-15T06:11:37.604Z,148.00
2018-04-15T06:12:37.598Z,160.00
2018-04-15T06:13:37.576Z,168.00
2018-04-15T06:14:37.552Z,180.00
2018-04-15T06:15:37.544Z,196.00
2018-04-15T06:16:37.519Z,252.00
2018-04-15T06:17:37.502Z,316.00
2018-04-15T06:18:37.490Z,364.00
2018-04-15T06:19:37.483Z,408.00
2018-04-15T06:20:37.455Z,452.00
2018-04-15T06:21:37.443Z,468.00
2018-04-15T06:22:37.420Z,452.00
2018-04-15T06:23:37.405Z,408.00
2018-04-15T06:24:37.415Z,376.00
2018-04-15T06:25:37.372Z,344.00
2018-04-15T06:26:37.354Z,372.00
2018-04-15T06:27:37.354Z,396.00
2018-04-15T06:28:37.328Z,412.00
2018-04-15T06:29:37.313Z,448.00
2018-04-15T06:30:37.287Z,468.00
2018-04-15T06:31:37.278Z,472.00
2018-04-15T06:32:37.255Z,460.00
2018-04-15T06:33:37.239Z,484.00
2018-04-15T06:34:37.223Z,492.00
2018-04-15T06:35:37.205Z,524.00
2018-04-15T06:36:37.209Z,592.00
2018-04-15T06:37:37.178Z,568.00
2018-04-15T06:38:37.161Z,600.00
2018-04-15T06:39:37.145Z,588.00
2018-04-15T06:40:37.127Z,616.00
2018-04-15T06:41:37.107Z,648.00
2018-04-15T06:42:37.091Z,648.00
2018-04-15T06:43:37.081Z,656.00
2018-04-15T06:44:37.067Z,656.00
2018-04-15T06:45:37.043Z,656.00
2018-04-15T06:46:37.035Z,660.00
2018-04-15T06:47:37.015Z,660.00
2018-04-15T06:48:37.003Z,684.00
2018-04-15T06:49:36.984Z,688.00
2018-04-15T06:50:36.963Z,696.00
2018-04-15T06:51:36.954Z,712.00
2018-04-15T06:52:36.934Z,724.00
2018-04-15T06:53:37.044Z,736.00
2018-04-15T06:54:36.910Z,696.00
2018-04-15T06:55:36.883Z,692.00
2018-04-15T06:56:36.872Z,752.00
2018-04-15T06:57:36.852Z,784.00
2018-04-15T06:58:36.833Z,768.00
2018-04-15T06:59:36.818Z,800.00
2018-04-15T07:00:36.804Z,736.00
2018-04-15T07:01:36.829Z,772.00
2018-04-15T07:02:36.782Z,852.00
2018-04-15T07:03:36.752Z,940.00
2018-04-15T07:04:36.734Z,960.00
2018-04-15T07:05:36.722Z,988.00
2018-04-15T07:06:36.722Z,1000.00
2018-04-15T07:07:36.692Z,956.00
2018-04-15T07:08:36.702Z,932.00
2018-04-15T07:09:36.731Z,928.00
2018-04-15T07:10:36.717Z,948.00
2018-04-15T07:11:36.636Z,952.00
2018-04-15T07:12:36.643Z,964.00
2018-04-15T07:13:36.593Z,952.00
2018-04-15T07:14:36.644Z,972.00
2018-04-15T07:15:36.575Z,1020.00
2018-04-15T07:16:36.546Z,1040.00
2018-04-15T07:17:36.533Z,1056.00
2018-04-15T07:18:36.533Z,1096.00
2018-04-15T07:19:36.548Z,1148.00
2018-04-15T07:20:36.484Z,1284.00
2018-04-15T07:21:36.503Z,1324.00
2018-04-15T07:22:36.457Z,1404.00
2018-04-15T07:23:36.430Z,1504.00
2018-04-15T07:24:36.414Z,1612.00
2018-04-15T07:25:36.397Z,1568.00
2018-04-15T07:26:36.391Z,1600.00
2018-04-15T07:27:36.362Z,1540.00
2018-04-15T07:28:36.346Z,1532.00
2018-04-15T07:29:36.383Z,1496.00
2018-04-15T07:30:36.331Z,1452.00
2018-04-15T07:31:36.311Z,1468.00
2018-04-15T07:32:36.292Z,1488.00
2018-04-15T07:33:36.276Z,1648.00
2018-04-15T07:34:36.254Z,1780.00
2018-04-15T07:35:36.233Z,1804.00
2018-04-15T07:36:36.264Z,2036.00
2018-04-15T07:37:36.205Z,2384.00
2018-04-15T07:38:36.188Z,2604.00
2018-04-15T07:39:36.186Z,3380.00
2018-04-15T07:40:36.155Z,6500.00
2018-04-15T07:41:36.148Z,6172.00
2018-04-15T07:42:36.122Z,4388.00
2018-04-15T07:43:36.114Z,5080.00
2018-04-15T07:44:36.094Z,2836.00
2018-04-15T07:45:36.080Z,2392.00
2018-04-15T07:46:36.067Z,2452.00
2018-04-15T07:47:36.050Z,2372.00
2018-04-15T07:48:36.028Z,2264.00
2018-04-15T07:49:36.012Z,2336.00
2018-04-15T07:50:35.998Z,2196.00
2018-04-15T07:51:35.983Z,2340.00
2018-04-15T07:52:35.966Z,2332.00
2018-04-15T07:53:35.950Z,2088.00
2018-04-15T07:54:35.935Z,2484.00
2018-04-15T07:55:35.924Z,2520.00
2018-04-15T07:56:35.900Z,2492.00
2018-04-15T07:57:35.889Z,2612.00
2018-04-15T07:58:35.873Z,2516.00
2018-04-15T07:59:35.852Z,2716.00
2018-04-15T08:00:35.839Z,2924.00
2018-04-15T08:01:35.826Z,2968.00
2018-04-15T08:02:35.810Z,3032.00
2018-04-15T08:03:35.795Z,3236.00
2018-04-15T08:04:35.831Z,3408.00
2018-04-15T08:05:35.764Z,3632.00
2018-04-15T08:06:35.804Z,3884.00
2018-04-15T08:07:35.732Z,4768.00
2018-04-15T08:08:35.721Z,3744.00
2018-04-15T08:09:35.703Z,3384.00
2018-04-15T08:10:35.746Z,3232.00
2018-04-15T08:11:35.674Z,3468.00
2018-04-15T08:12:35.760Z,5120.00
2018-04-15T08:13:35.645Z,7840.00
2018-04-15T08:14:35.634Z,10736.00
2018-04-15T08:15:35.613Z,15840.00
2018-04-15T08:16:35.654Z,17536.00
2018-04-15T08:17:35.582Z,18592.00
2018-04-15T08:18:35.569Z,18400.00
2018-04-15T08:19:35.556Z,24640.00
2018-04-15T08:20:35.544Z,52864.00
2018-04-15T08:21:35.536Z,67008.00
2018-04-15T08:22:35.516Z,72096.00
2018-04-15T08:23:35.505Z,76096.00
2018-04-15T08:24:35.497Z,80736.00
2018-04-15T08:25:35.488Z,34432.00
2018-04-15T08:26:35.475Z,18368.00
2018-04-15T08:27:35.464Z,14960.00
2018-04-15T08:28:35.453Z,13836.00
2018-04-15T08:29:35.451Z,40704.00
2018-04-15T08:30:35.443Z,49376.00
2018-04-15T08:31:35.431Z,29344.00
2018-04-15T08:32:35.423Z,14408.00
2018-04-15T08:33:35.413Z,13664.00
2018-04-15T08:34:35.408Z,14580.00
2018-04-15T08:35:35.393Z,12764.00
2018-04-15T08:36:35.390Z,19264.00
2018-04-15T08:37:35.380Z,10324.00
2018-04-15T08:38:35.373Z,9100.00
2018-04-15T08:39:35.362Z,7900.00
2018-04-15T08:40:35.356Z,8108.00
2018-04-15T08:41:35.343Z,7456.00
2018-04-15T08:42:35.338Z,6064.00
2018-04-15T08:43:35.326Z,5884.00
2018-04-15T08:44:35.311Z,6328.00
2018-04-15T08:45:35.306Z,6508.00
2018-04-15T08:46:35.291Z,6720.00
2018-04-15T08:47:35.284Z,10344.00
2018-04-15T08:48:35.276Z,19008.00
2018-04-15T08:49:35.263Z,22496.00
2018-04-15T08:50:35.257Z,16608.00
2018-04-15T08:51:35.245Z,12700.00
2018-04-15T08:52:35.226Z,11252.00
2018-04-15T08:53:35.216Z,10996.00
2018-04-15T08:54:35.221Z,10784.00
2018-04-15T08:55:35.205Z,10464.00
2018-04-15T08:56:35.192Z,9736.00
2018-04-15T08:57:35.178Z,10076.00
2018-04-15T08:58:35.163Z,9556.00
2018-04-15T08:59:35.203Z,9652.00
2018-04-15T09:00:35.187Z,9384.00
2018-04-15T09:01:35.127Z,9816.00
2018-04-15T09:02:35.119Z,10828.00
2018-04-15T09:03:35.117Z,13476.00
2018-04-15T09:04:35.101Z,13864.00
2018-04-15T09:05:35.085Z,15404.00
2018-04-15T09:06:35.075Z,17440.00
2018-04-15T09:07:35.067Z,23808.00
2018-04-15T09:08:35.062Z,22560.00
2018-04-15T09:09:35.049Z,33280.00
2018-04-15T09:10:35.033Z,26976.00
2018-04-15T09:11:35.019Z,19840.00
2018-04-15T09:12:35.010Z,15700.00
2018-04-15T09:13:35.005Z,17120.00
2018-04-15T09:14:34.992Z,17504.00
2018-04-15T09:15:34.984Z,26432.00
2018-04-15T09:16:34.968Z,73760.00
2018-04-15T09:17:34.965Z,45920.00
2018-04-15T09:18:34.951Z,21024.00
2018-04-15T09:19:34.945Z,18400.00
2018-04-15T09:20:34.936Z,16064.00
2018-04-15T09:21:34.921Z,16480.00
2018-04-15T09:22:34.918Z,17152.00
2018-04-15T09:23:34.905Z,21856.00
2018-04-15T09:24:34.898Z,26176.00
2018-04-15T09:25:34.901Z,27136.00
2018-04-15T09:26:34.890Z,45280.00
2018-04-15T09:27:34.874Z,44800.00
2018-04-15T09:28:34.860Z,41952.00
2018-04-15T09:29:34.863Z,34848.00
2018-04-15T09:30:34.843Z,21440.00
2018-04-15T09:31:34.834Z,19616.00
2018-04-15T09:32:34.828Z,18560.00
2018-04-15T09:33:34.821Z,17920.00
2018-04-15T09:34:34.819Z,17088.00
2018-04-15T09:35:34.860Z,16448.00
2018-04-15T09:36:34.812Z,16192.00
2018-04-15T09:37:34.799Z,16448.00
2018-04-15T09:38:34.789Z,16832.00
2018-04-15T09:39:34.781Z,16896.00
2018-04-15T09:40:34.774Z,16064.00
2018-04-15T09:41:34.771Z,15072.00
2018-04-15T09:42:34.766Z,15200.00
2018-04-15T09:43:34.760Z,10656.00
2018-04-15T09:44:34.752Z,6452.00
2018-04-15T09:45:34.745Z,6024.00
2018-04-15T09:46:34.741Z,6176.00
2018-04-15T09:47:34.732Z,6128.00
2018-04-15T09:48:34.728Z,5940.00
2018-04-15T09:49:34.728Z,5704.00
2018-04-15T09:50:34.725Z,5904.00
2018-04-15T09:51:34.702Z,6652.00
2018-04-15T09:52:34.715Z,7216.00
2018-04-15T09:53:34.690Z,7888.00
2018-04-15T09:54:34.681Z,13088.00
2018-04-15T09:55:34.668Z,17024.00
2018-04-15T09:56:34.663Z,13604.00
2018-04-15T09:57:34.657Z,16128.00
2018-04-15T09:58:34.645Z,13108.00
2018-04-15T09:59:34.636Z,9908.00
2018-04-15T10:00:34.628Z,12488.00
2018-04-15T10:01:34.632Z,14816.00
2018-04-15T10:02:34.610Z,7916.00
2018-04-15T10:03:34.606Z,8884.00
2018-04-15T10:04:34.601Z,9200.00
2018-04-15T10:05:34.590Z,8728.00
2018-04-15T10:06:34.580Z,9416.00
2018-04-15T10:07:34.572Z,9972.00
2018-04-15T10:08:34.562Z,15872.00
2018-04-15T10:09:34.550Z,11480.00
2018-04-15T10:10:34.545Z,9968.00
2018-04-15T10:11:34.538Z,9916.00
2018-04-15T10:12:34.529Z,15328.00
2018-04-15T10:13:34.540Z,13944.00
2018-04-15T10:14:34.510Z,14656.00
2018-04-15T10:15:34.498Z,14592.00
2018-04-15T10:16:34.500Z,14068.00
2018-04-15T10:17:34.490Z,13244.00
2018-04-15T10:18:34.471Z,11504.00
2018-04-15T10:19:34.470Z,11540.00
2018-04-15T10:20:34.457Z,12808.00
2018-04-15T10:21:34.454Z,12240.00
2018-04-15T10:22:34.440Z,12148.00
2018-04-15T10:23:34.431Z,12112.00
2018-04-15T10:24:34.435Z,11916.00
2018-04-15T10:25:34.419Z,12152.00
2018-04-15T10:26:34.410Z,12320.00
2018-04-15T10:27:34.418Z,12776.00
2018-04-15T10:28:34.391Z,8740.00
2018-04-15T10:29:34.389Z,6240.00
2018-04-15T10:30:34.374Z,5744.00
2018-04-15T10:31:34.374Z,5792.00
2018-04-15T10:32:34.361Z,6268.00
2018-04-15T10:33:34.356Z,6672.00
2018-04-15T10:34:34.344Z,8200.00
2018-04-15T10:35:34.335Z,8424.00
2018-04-15T10:36:34.335Z,8108.00
2018-04-15T10:37:34.364Z,8376.00
2018-04-15T10:38:34.311Z,8676.00
2018-04-15T10:39:34.401Z,11984.00
2018-04-15T10:40:34.291Z,6880.00
2018-04-15T10:41:34.291Z,6692.00
2018-04-15T10:42:34.270Z,10568.00
2018-04-15T10:43:34.274Z,12744.00
2018-04-15T10:44:34.254Z,11880.00
2018-04-15T10:45:34.295Z,9412.00
2018-04-15T10:46:34.232Z,9052.00
2018-04-15T10:47:34.233Z,7244.00
2018-04-15T10:48:34.222Z,10576.00
2018-04-15T10:49:34.211Z,12328.00
2018-04-15T10:50:34.199Z,11816.00
2018-04-15T10:51:34.193Z,11672.00
2018-04-15T10:52:34.183Z,11400.00
2018-04-15T10:53:34.173Z,11228.00
2018-04-15T10:54:34.178Z,11268.00
2018-04-15T10:55:34.160Z,11156.00
2018-04-15T10:56:34.171Z,11156.00
2018-04-15T10:57:34.143Z,11520.00
2018-04-15T10:58:34.187Z,11812.00
2018-04-15T10:59:34.124Z,12100.00
2018-04-15T11:00:34.113Z,12248.00
2018-04-15T11:01:34.104Z,12532.00
2018-04-15T11:02:34.106Z,12580.00
2018-04-15T11:03:34.090Z,12832.00
2018-04-15T11:04:34.083Z,12896.00
2018-04-15T11:05:34.074Z,6980.00
2018-04-15T11:06:34.074Z,6336.00
2018-04-15T11:07:34.065Z,6028.00
2018-04-15T11:08:34.049Z,6136.00
2018-04-15T11:09:34.046Z,6112.00
2018-04-15T11:10:34.034Z,7116.00
2018-04-15T11:11:34.025Z,11156.00
2018-04-15T11:12:34.016Z,6012.00
2018-04-15T11:13:34.012Z,10044.00
2018-04-15T11:14:34.100Z,12316.00
2018-04-15T11:15:33.994Z,12628.00
2018-04-15T11:16:33.983Z,12712.00
2018-04-15T11:17:33.974Z,12940.00
2018-04-15T11:18:33.960Z,12500.00
2018-04-15T11:19:33.959Z,12164.00
2018-04-15T11:20:33.944Z,11852.00
2018-04-15T11:21:33.943Z,11552.00
2018-04-15T11:22:33.934Z,10112.00
2018-04-15T11:23:33.924Z,10940.00
2018-04-15T11:24:33.909Z,10944.00
2018-04-15T11:25:33.900Z,5008.00
2018-04-15T11:26:33.895Z,5324.00
2018-04-15T11:27:33.885Z,5344.00
2018-04-15T11:28:33.880Z,6280.00
2018-04-15T11:29:33.865Z,4860.00
2018-04-15T11:30:33.861Z,4828.00
2018-04-15T11:31:33.852Z,4916.00
2018-04-15T11:32:33.899Z,5136.00
2018-04-15T11:33:33.836Z,6200.00
2018-04-15T11:34:33.825Z,11752.00
2018-04-15T11:35:33.815Z,8952.00
2018-04-15T11:36:33.806Z,10560.00
2018-04-15T11:37:33.810Z,12136.00
2018-04-15T11:38:33.792Z,12568.00
2018-04-15T11:39:33.783Z,12208.00
2018-04-15T11:40:33.776Z,11784.00
2018-04-15T11:41:33.760Z,9580.00
2018-04-15T11:42:33.772Z,11372.00
2018-04-15T11:43:33.745Z,5412.00
2018-04-15T11:44:33.739Z,4892.00
2018-04-15T11:45:33.728Z,4336.00
2018-04-15T11:46:33.724Z,4316.00
2018-04-15T11:47:33.716Z,5136.00
2018-04-15T11:48:33.703Z,4624.00
2018-04-15T11:49:33.697Z,9440.00
2018-04-15T11:50:33.683Z,10676.00
2018-04-15T11:51:33.742Z,10896.00
2018-04-15T11:52:33.673Z,10832.00
2018-04-15T11:53:33.659Z,11244.00
2018-04-15T11:54:33.651Z,11536.00
2018-04-15T11:55:33.639Z,10560.00
2018-04-15T11:56:33.632Z,11696.00
2018-04-15T11:57:33.625Z,11696.00
2018-04-15T11:58:33.653Z,11724.00
2018-04-15T11:59:33.614Z,11980.00
2018-04-15T12:00:33.606Z,12044.00
2018-04-15T12:01:33.588Z,11892.00
2018-04-15T12:02:33.581Z,11992.00
2018-04-15T12:03:33.580Z,12112.00
2018-04-15T12:04:33.568Z,11900.00
2018-04-15T12:05:33.563Z,11776.00
2018-04-15T12:06:33.555Z,11720.00
2018-04-15T12:07:33.552Z,5496.00
2018-04-15T12:08:33.536Z,10700.00
2018-04-15T12:09:33.530Z,10140.00
2018-04-15T12:10:33.526Z,12400.00
2018-04-15T12:11:33.525Z,12864.00
2018-04-15T12:12:33.500Z,12936.00
2018-04-15T12:13:33.496Z,12744.00
2018-04-15T12:14:33.491Z,5860.00
2018-04-15T12:15:33.482Z,5944.00
2018-04-15T12:16:33.471Z,6204.00
2018-04-15T12:17:33.461Z,6900.00
2018-04-15T12:18:33.455Z,11660.00
2018-04-15T12:19:33.454Z,8244.00
2018-04-15T12:20:33.452Z,11852.00
2018-04-15T12:21:33.435Z,12284.00
2018-04-15T12:22:33.432Z,12164.00
2018-04-15T12:23:33.423Z,11480.00
2018-04-15T12:24:33.414Z,8860.00
2018-04-15T12:25:33.407Z,6196.00
2018-04-15T12:26:33.397Z,6004.00
2018-04-15T12:27:33.399Z,6404.00
2018-04-15T12:28:33.380Z,8852.00
2018-04-15T12:29:33.385Z,10136.00
2018-04-15T12:30:33.377Z,5980.00
2018-04-15T12:31:33.354Z,11096.00
2018-04-15T12:32:33.359Z,10712.00